Terminal Aerodrome Forecast
Issued by NWS Fort Wayne, IN

Home | Current Version | Previous Version | Text Only | Print | Product List | Glossary On
Versions: 1 2 3 4 5 6 7 8 9 10 11 12 13 14 15 16 17 18 19 20
000
FTUS43 KIWX 060500
TAFFWA
TAF
KFWA 060537Z 0606/0706 08009KT 5SM BR BKN008 OVC080
     FM060800 VRB03KT 1SM BR OVC004
     FM061300 15005KT 4SM BR OVC008
     FM061500 17007KT P6SM BKN025
     FM061700 20008KT P6SM SCT035=

USA.gov is the U.S. government's official web portal to all federal, state and local government web resources and services.